sensor_id;sensor_type;location;lat;lon;timestamp;pressure;altitude;pressure_sealevel;temperature;humidity
75668;BME280;64266;48.798;44.756;2023-11-21T00:03:38;99987.34;;;9.71;85.26
75668;BME280;64266;48.798;44.756;2023-11-21T00:08:41;99956.16;;;9.50;84.26
75668;BME280;64266;48.798;44.756;2023-11-21T00:13:44;99986.53;;;9.71;84.49
75668;BME280;64266;48.798;44.756;2023-11-21T00:18:52;100002.06;;;9.67;83.93
75668;BME280;64266;48.798;44.756;2023-11-21T00:23:55;99997.25;;;9.53;84.19
75668;BME280;64266;48.798;44.756;2023-11-21T00:28:58;99992.03;;;9.35;83.62
75668;BME280;64266;48.798;44.756;2023-11-21T00:34:04;99990.41;;;9.34;85.14
75668;BME280;64266;48.798;44.756;2023-11-21T00:39:09;100000.09;;;9.40;85.71
75668;BME280;64266;48.798;44.756;2023-11-21T00:44:12;99992.81;;;9.35;85.22
75668;BME280;64266;48.798;44.756;2023-11-21T00:49:15;100000.00;;;9.46;85.11
75668;BME280;64266;48.798;44.756;2023-11-21T00:54:17;99996.53;;;9.57;85.54
75668;BME280;64266;48.798;44.756;2023-11-21T00:59:22;99999.91;;;9.64;85.14
75668;BME280;64266;48.798;44.756;2023-11-21T01:04:25;99987.69;;;9.52;84.69
75668;BME280;64266;48.798;44.756;2023-11-21T01:09:29;100002.19;;;9.61;85.20
75668;BME280;64266;48.798;44.756;2023-11-21T01:14:32;99981.22;;;9.48;84.51
75668;BME280;64266;48.798;44.756;2023-11-21T01:19:35;99999.28;;;9.51;83.54
75668;BME280;64266;48.798;44.756;2023-11-21T01:24:38;100011.38;;;9.47;83.99
75668;BME280;64266;48.798;44.756;2023-11-21T01:29:41;99986.94;;;9.21;83.27
75668;BME280;64266;48.798;44.756;2023-11-21T01:34:44;99995.16;;;9.32;84.83
75668;BME280;64266;48.798;44.756;2023-11-21T01:39:48;99989.72;;;9.26;84.70
75668;BME280;64266;48.798;44.756;2023-11-21T01:44:51;99998.78;;;9.19;83.65
75668;BME280;64266;48.798;44.756;2023-11-21T01:49:54;99993.81;;;9.11;83.85
75668;BME280;64266;48.798;44.756;2023-11-21T01:54:59;99983.00;;;9.01;84.19
75668;BME280;64266;48.798;44.756;2023-11-21T02:00:03;99992.44;;;9.08;84.28
75668;BME280;64266;48.798;44.756;2023-11-21T02:05:20;99963.28;;;8.85;83.36
75668;BME280;64266;48.798;44.756;2023-11-21T02:10:24;99969.59;;;8.84;84.06
75668;BME280;64266;48.798;44.756;2023-11-21T02:15:27;99986.16;;;8.80;82.96
75668;BME280;64266;48.798;44.756;2023-11-21T02:20:32;100004.66;;;8.80;83.68
75668;BME280;64266;48.798;44.756;2023-11-21T02:25:38;100005.22;;;8.82;84.29
75668;BME280;64266;48.798;44.756;2023-11-21T02:30:41;99997.88;;;8.84;83.19
75668;BME280;64266;48.798;44.756;2023-11-21T02:35:45;100004.50;;;8.75;82.86
75668;BME280;64266;48.798;44.756;2023-11-21T02:40:48;99999.63;;;8.60;83.09
75668;BME280;64266;48.798;44.756;2023-11-21T02:45:51;99976.22;;;8.45;83.42
75668;BME280;64266;48.798;44.756;2023-11-21T02:50:54;99994.13;;;8.43;83.51
75668;BME280;64266;48.798;44.756;2023-11-21T02:55:57;100000.09;;;8.39;83.04
75668;BME280;64266;48.798;44.756;2023-11-21T03:01:00;99989.00;;;8.30;83.71
75668;BME280;64266;48.798;44.756;2023-11-21T03:06:04;99977.00;;;8.09;82.48
75668;BME280;64266;48.798;44.756;2023-11-21T03:11:07;99997.84;;;8.17;83.91
75668;BME280;64266;48.798;44.756;2023-11-21T03:16:11;99993.59;;;8.16;83.41
75668;BME280;64266;48.798;44.756;2023-11-21T03:21:14;99998.13;;;8.09;83.52
75668;BME280;64266;48.798;44.756;2023-11-21T03:26:18;99977.88;;;8.03;82.98
75668;BME280;64266;48.798;44.756;2023-11-21T03:31:21;99961.78;;;7.93;82.08
75668;BME280;64266;48.798;44.756;2023-11-21T03:36:24;99952.53;;;7.84;82.52
75668;BME280;64266;48.798;44.756;2023-11-21T03:41:27;99994.34;;;8.05;82.40
75668;BME280;64266;48.798;44.756;2023-11-21T03:46:31;99983.31;;;7.90;82.30
75668;BME280;64266;48.798;44.756;2023-11-21T03:51:33;99994.47;;;8.10;83.79
75668;BME280;64266;48.798;44.756;2023-11-21T03:56:38;99986.84;;;8.02;81.26
75668;BME280;64266;48.798;44.756;2023-11-21T04:01:41;99964.53;;;7.80;80.48
75668;BME280;64266;48.798;44.756;2023-11-21T04:06:44;99989.25;;;8.04;80.73
75668;BME280;64266;48.798;44.756;2023-11-21T04:11:47;99980.81;;;7.95;81.23
75668;BME280;64266;48.798;44.756;2023-11-21T04:16:50;99987.56;;;8.09;81.24
75668;BME280;64266;48.798;44.756;2023-11-21T04:21:53;99966.75;;;7.83;81.68
75668;BME280;64266;48.798;44.756;2023-11-21T04:26:56;99956.47;;;7.75;80.87
75668;BME280;64266;48.798;44.756;2023-11-21T04:32:01;100002.44;;;7.86;82.47
75668;BME280;64266;48.798;44.756;2023-11-21T04:37:05;100008.81;;;7.78;81.60
75668;BME280;64266;48.798;44.756;2023-11-21T04:42:08;100022.75;;;7.85;81.71
75668;BME280;64266;48.798;44.756;2023-11-21T04:47:11;100017.19;;;7.75;81.75
75668;BME280;64266;48.798;44.756;2023-11-21T04:52:15;99996.59;;;7.59;81.64
75668;BME280;64266;48.798;44.756;2023-11-21T04:57:18;100008.44;;;7.75;81.10
75668;BME280;64266;48.798;44.756;2023-11-21T05:02:21;100007.19;;;7.77;82.86
75668;BME280;64266;48.798;44.756;2023-11-21T05:07:36;100009.59;;;7.79;81.41
75668;BME280;64266;48.798;44.756;2023-11-21T05:12:43;100007.88;;;7.91;83.05
75668;BME280;64266;48.798;44.756;2023-11-21T05:17:46;100037.59;;;8.23;81.37
75668;BME280;64266;48.798;44.756;2023-11-21T05:22:52;100035.75;;;8.30;80.60
75668;BME280;64266;48.798;44.756;2023-11-21T05:27:55;100036.75;;;8.29;80.68
75668;BME280;64266;48.798;44.756;2023-11-21T05:32:58;99994.34;;;8.05;79.36
75668;BME280;64266;48.798;44.756;2023-11-21T05:38:01;100020.56;;;8.18;79.35
75668;BME280;64266;48.798;44.756;2023-11-21T05:43:04;99997.41;;;8.02;78.57
75668;BME280;64266;48.798;44.756;2023-11-21T05:48:14;99954.19;;;7.79;79.59
75668;BME280;64266;48.798;44.756;2023-11-21T05:53:18;100052.59;;;8.47;79.78
75668;BME280;64266;48.798;44.756;2023-11-21T05:58:22;100027.00;;;8.29;78.73
75668;BME280;64266;48.798;44.756;2023-11-21T06:03:26;100022.09;;;8.33;79.06
75668;BME280;64266;48.798;44.756;2023-11-21T06:08:29;100036.75;;;8.47;79.92
75668;BME280;64266;48.798;44.756;2023-11-21T06:13:32;100049.97;;;8.65;79.45
75668;BME280;64266;48.798;44.756;2023-11-21T06:18:35;100050.56;;;8.67;78.83
75668;BME280;64266;48.798;44.756;2023-11-21T06:23:40;100048.13;;;8.65;78.96
75668;BME280;64266;48.798;44.756;2023-11-21T06:28:44;100031.69;;;8.63;78.28
75668;BME280;64266;48.798;44.756;2023-11-21T06:33:47;100059.72;;;8.83;78.33
75668;BME280;64266;48.798;44.756;2023-11-21T06:38:50;100034.63;;;8.74;78.94
75668;BME280;64266;48.798;44.756;2023-11-21T06:43:54;100044.50;;;8.78;78.32
75668;BME280;64266;48.798;44.756;2023-11-21T06:48:57;100060.78;;;8.93;78.46
75668;BME280;64266;48.798;44.756;2023-11-21T06:54:00;100045.25;;;8.85;78.88
75668;BME280;64266;48.798;44.756;2023-11-21T06:59:03;100062.13;;;8.84;77.45
75668;BME280;64266;48.798;44.756;2023-11-21T07:04:08;100054.66;;;8.81;78.45
75668;BME280;64266;48.798;44.756;2023-11-21T07:09:11;100036.47;;;8.73;78.74
75668;BME280;64266;48.798;44.756;2023-11-21T07:14:15;100089.44;;;8.96;76.93
75668;BME280;64266;48.798;44.756;2023-11-21T07:19:19;100108.59;;;9.10;78.74
75668;BME280;64266;48.798;44.756;2023-11-21T07:24:23;100024.50;;;8.52;76.42
75668;BME280;64266;48.798;44.756;2023-11-21T07:29:28;100089.31;;;8.91;76.44
75668;BME280;64266;48.798;44.756;2023-11-21T07:34:32;100050.78;;;8.65;77.51
75668;BME280;64266;48.798;44.756;2023-11-21T07:39:35;100085.78;;;8.79;77.40
75668;BME280;64266;48.798;44.756;2023-11-21T07:44:39;100051.16;;;8.51;76.68
75668;BME280;64266;48.798;44.756;2023-11-21T07:49:42;100054.53;;;8.58;76.64
75668;BME280;64266;48.798;44.756;2023-11-21T07:54:46;100089.13;;;8.86;77.53
75668;BME280;64266;48.798;44.756;2023-11-21T07:59:49;100075.22;;;8.79;77.74
75668;BME280;64266;48.798;44.756;2023-11-21T08:04:53;100099.00;;;8.97;77.53
75668;BME280;64266;48.798;44.756;2023-11-21T08:09:56;100073.88;;;8.88;78.63
75668;BME280;64266;48.798;44.756;2023-11-21T08:14:59;100084.81;;;8.92;76.57
75668;BME280;64266;48.798;44.756;2023-11-21T08:20:05;100099.59;;;8.81;77.99
75668;BME280;64266;48.798;44.756;2023-11-21T08:25:09;100088.00;;;8.46;76.70
75668;BME280;64266;48.798;44.756;2023-11-21T08:30:12;100084.31;;;8.29;77.63
75668;BME280;64266;48.798;44.756;2023-11-21T08:35:16;100102.09;;;8.15;77.74
75668;BME280;64266;48.798;44.756;2023-11-21T08:40:20;100115.22;;;7.97;77.40
75668;BME280;64266;48.798;44.756;2023-11-21T08:45:24;100107.44;;;7.84;79.47
75668;BME280;64266;48.798;44.756;2023-11-21T08:50:28;100113.41;;;7.73;79.50
75668;BME280;64266;48.798;44.756;2023-11-21T08:55:31;100111.09;;;7.51;80.61
75668;BME280;64266;48.798;44.756;2023-11-21T09:00:40;100120.25;;;7.49;82.75
75668;BME280;64266;48.798;44.756;2023-11-21T09:05:43;100128.06;;;7.37;80.49
75668;BME280;64266;48.798;44.756;2023-11-21T09:10:47;100125.59;;;7.36;82.25
75668;BME280;64266;48.798;44.756;2023-11-21T09:15:50;100105.06;;;7.13;82.38
75668;BME280;64266;48.798;44.756;2023-11-21T09:20:53;100093.81;;;6.86;82.87
75668;BME280;64266;48.798;44.756;2023-11-21T09:25:56;100112.09;;;6.81;82.90
75668;BME280;64266;48.798;44.756;2023-11-21T09:31:02;100144.69;;;6.93;83.30
75668;BME280;64266;48.798;44.756;2023-11-21T09:36:11;100127.88;;;6.81;82.23
75668;BME280;64266;48.798;44.756;2023-11-21T09:41:39;100127.50;;;6.71;81.85
75668;BME280;64266;48.798;44.756;2023-11-21T09:46:47;100140.47;;;6.79;81.32
75668;BME280;64266;48.798;44.756;2023-11-21T09:51:54;100142.06;;;6.87;81.62
75668;BME280;64266;48.798;44.756;2023-11-21T09:56:59;100110.53;;;6.67;81.05
75668;BME280;64266;48.798;44.756;2023-11-21T10:02:02;100133.19;;;6.68;79.44
75668;BME280;64266;48.798;44.756;2023-11-21T10:07:06;100133.25;;;6.55;78.88
75668;BME280;64266;48.798;44.756;2023-11-21T10:12:12;100151.88;;;6.60;79.29
75668;BME280;64266;48.798;44.756;2023-11-21T10:17:17;100164.22;;;6.60;78.66
75668;BME280;64266;48.798;44.756;2023-11-21T10:22:21;100152.50;;;6.49;78.06
75668;BME280;64266;48.798;44.756;2023-11-21T10:27:27;100133.28;;;6.42;78.82
75668;BME280;64266;48.798;44.756;2023-11-21T10:32:30;100156.56;;;6.45;78.17
75668;BME280;64266;48.798;44.756;2023-11-21T10:37:36;100173.19;;;6.45;76.95
75668;BME280;64266;48.798;44.756;2023-11-21T10:42:43;100182.91;;;6.38;77.46
75668;BME280;64266;48.798;44.756;2023-11-21T10:47:46;100159.81;;;6.08;77.45
75668;BME280;64266;48.798;44.756;2023-11-21T10:52:49;100166.91;;;5.87;77.24
75668;BME280;64266;48.798;44.756;2023-11-21T10:57:53;100183.63;;;5.73;78.22
75668;BME280;64266;48.798;44.756;2023-11-21T11:02:57;100198.03;;;5.77;78.00
75668;BME280;64266;48.798;44.756;2023-11-21T11:08:05;100197.19;;;5.70;77.94
75668;BME280;64266;48.798;44.756;2023-11-21T11:13:08;100191.09;;;5.63;76.68
75668;BME280;64266;48.798;44.756;2023-11-21T11:18:12;100207.50;;;5.78;77.71
75668;BME280;64266;48.798;44.756;2023-11-21T11:34:26;100181.88;;;5.26;73.43
75668;BME280;64266;48.798;44.756;2023-11-21T11:39:36;100162.72;;;4.85;74.25
75668;BME280;64266;48.798;44.756;2023-11-21T11:50:10;100229.94;;;4.73;75.46
75668;BME280;64266;48.798;44.756;2023-11-21T11:55:21;100248.22;;;4.60;77.01
75668;BME280;64266;48.798;44.756;2023-11-21T12:05:34;100253.25;;;4.12;79.76
75668;BME280;64266;48.798;44.756;2023-11-21T12:10:42;100261.50;;;4.09;81.11
75668;BME280;64266;48.798;44.756;2023-11-21T12:15:46;100273.84;;;4.09;81.23
75668;BME280;64266;48.798;44.756;2023-11-21T12:20:48;100264.09;;;4.03;80.00
75668;BME280;64266;48.798;44.756;2023-11-21T12:25:52;100268.31;;;3.82;79.62
75668;BME280;64266;48.798;44.756;2023-11-21T12:30:56;100312.88;;;3.82;77.52
75668;BME280;64266;48.798;44.756;2023-11-21T12:36:16;100288.63;;;3.59;78.66
75668;BME280;64266;48.798;44.756;2023-11-21T12:41:19;100324.84;;;3.70;78.62
75668;BME280;64266;48.798;44.756;2023-11-21T12:46:24;100326.84;;;3.68;81.59
75668;BME280;64266;48.798;44.756;2023-11-21T12:51:32;100328.28;;;3.71;80.83
75668;BME280;64266;48.798;44.756;2023-11-21T12:56:39;100327.41;;;3.49;79.95
75668;BME280;64266;48.798;44.756;2023-11-21T13:01:42;100302.63;;;3.08;79.83
75668;BME280;64266;48.798;44.756;2023-11-21T13:06:46;100314.66;;;3.17;79.82
75668;BME280;64266;48.798;44.756;2023-11-21T13:11:48;100324.69;;;3.13;77.54
75668;BME280;64266;48.798;44.756;2023-11-21T13:16:51;100354.88;;;3.24;76.87
75668;BME280;64266;48.798;44.756;2023-11-21T13:21:54;100337.69;;;3.07;78.27
75668;BME280;64266;48.798;44.756;2023-11-21T13:26:57;100374.59;;;3.35;77.76
75668;BME280;64266;48.798;44.756;2023-11-21T13:32:00;100335.53;;;3.10;76.29
75668;BME280;64266;48.798;44.756;2023-11-21T13:37:05;100370.59;;;3.24;75.99
75668;BME280;64266;48.798;44.756;2023-11-21T13:42:10;100376.53;;;3.18;74.02
75668;BME280;64266;48.798;44.756;2023-11-21T13:47:14;100386.66;;;3.21;74.84
75668;BME280;64266;48.798;44.756;2023-11-21T13:52:17;100392.88;;;3.05;74.46
75668;BME280;64266;48.798;44.756;2023-11-21T13:57:25;100413.66;;;3.07;72.94
75668;BME280;64266;48.798;44.756;2023-11-21T14:02:29;100413.06;;;2.97;72.85
75668;BME280;64266;48.798;44.756;2023-11-21T14:07:40;100429.03;;;3.10;73.01
75668;BME280;64266;48.798;44.756;2023-11-21T14:12:50;100415.81;;;3.03;73.53
75668;BME280;64266;48.798;44.756;2023-11-21T14:17:53;100411.28;;;2.74;72.71
75668;BME280;64266;48.798;44.756;2023-11-21T14:22:57;100454.69;;;2.69;74.37
75668;BME280;64266;48.798;44.756;2023-11-21T14:28:00;100441.19;;;2.57;73.28
75668;BME280;64266;48.798;44.756;2023-11-21T14:33:03;100457.38;;;2.61;71.86
75668;BME280;64266;48.798;44.756;2023-11-21T14:38:06;100463.09;;;2.56;72.98
75668;BME280;64266;48.798;44.756;2023-11-21T14:43:09;100464.34;;;2.68;73.29
75668;BME280;64266;48.798;44.756;2023-11-21T14:48:12;100464.09;;;2.55;71.88
75668;BME280;64266;48.798;44.756;2023-11-21T14:53:34;100488.94;;;2.59;72.27
75668;BME280;64266;48.798;44.756;2023-11-21T14:58:57;100480.38;;;2.43;72.35
75668;BME280;64266;48.798;44.756;2023-11-21T15:04:07;100501.72;;;2.54;73.20
75668;BME280;64266;48.798;44.756;2023-11-21T15:09:10;100496.88;;;2.43;72.52
75668;BME280;64266;48.798;44.756;2023-11-21T15:14:13;100487.56;;;2.41;73.73
75668;BME280;64266;48.798;44.756;2023-11-21T15:19:22;100491.25;;;2.54;72.65
75668;BME280;64266;48.798;44.756;2023-11-21T15:24:28;100482.16;;;2.42;69.94
75668;BME280;64266;48.798;44.756;2023-11-21T15:29:31;100479.22;;;2.37;71.14
75668;BME280;64266;48.798;44.756;2023-11-21T15:34:36;100480.91;;;2.30;72.28
75668;BME280;64266;48.798;44.756;2023-11-21T15:39:39;100513.22;;;2.45;71.85
75668;BME280;64266;48.798;44.756;2023-11-21T15:44:42;100502.19;;;2.27;70.48
75668;BME280;64266;48.798;44.756;2023-11-21T15:49:45;100507.78;;;2.16;68.47
75668;BME280;64266;48.798;44.756;2023-11-21T15:54:52;100527.75;;;2.01;67.76
75668;BME280;64266;48.798;44.756;2023-11-21T15:59:56;100529.91;;;1.97;67.61
75668;BME280;64266;48.798;44.756;2023-11-21T16:05:00;100543.94;;;2.04;67.40
75668;BME280;64266;48.798;44.756;2023-11-21T16:10:03;100533.84;;;1.85;68.78
75668;BME280;64266;48.798;44.756;2023-11-21T16:15:07;100552.97;;;1.94;68.39
75668;BME280;64266;48.798;44.756;2023-11-21T16:20:10;100529.13;;;1.73;68.23
75668;BME280;64266;48.798;44.756;2023-11-21T16:25:15;100543.47;;;1.85;68.72
75668;BME280;64266;48.798;44.756;2023-11-21T16:30:19;100569.16;;;1.81;67.13
75668;BME280;64266;48.798;44.756;2023-11-21T16:35:26;100564.91;;;1.72;66.35
75668;BME280;64266;48.798;44.756;2023-11-21T16:40:29;100570.78;;;1.82;67.44
75668;BME280;64266;48.798;44.756;2023-11-21T16:45:31;100560.50;;;1.73;67.79
75668;BME280;64266;48.798;44.756;2023-11-21T16:50:35;100554.59;;;1.79;68.01
75668;BME280;64266;48.798;44.756;2023-11-21T16:55:37;100521.97;;;1.58;67.46
75668;BME280;64266;48.798;44.756;2023-11-21T17:00:40;100566.38;;;1.67;66.29
75668;BME280;64266;48.798;44.756;2023-11-21T17:05:44;100606.06;;;1.86;67.23
75668;BME280;64266;48.798;44.756;2023-11-21T17:10:48;100582.38;;;1.63;66.40
75668;BME280;64266;48.798;44.756;2023-11-21T17:15:51;100599.06;;;1.71;66.30
75668;BME280;64266;48.798;44.756;2023-11-21T17:20:54;100598.88;;;1.64;65.41
75668;BME280;64266;48.798;44.756;2023-11-21T17:25:58;100616.53;;;1.62;66.04
75668;BME280;64266;48.798;44.756;2023-11-21T17:31:01;100620.13;;;1.53;65.86
75668;BME280;64266;48.798;44.756;2023-11-21T17:36:04;100616.03;;;1.58;67.04
75668;BME280;64266;48.798;44.756;2023-11-21T17:41:11;100599.53;;;1.58;65.80
75668;BME280;64266;48.798;44.756;2023-11-21T17:46:21;100626.81;;;1.63;67.14
75668;BME280;64266;48.798;44.756;2023-11-21T17:51:25;100593.50;;;1.41;67.69
75668;BME280;64266;48.798;44.756;2023-11-21T17:56:28;100619.97;;;1.62;66.61
75668;BME280;64266;48.798;44.756;2023-11-21T18:01:38;100614.72;;;1.54;67.28
75668;BME280;64266;48.798;44.756;2023-11-21T18:06:42;100632.69;;;1.49;67.72
75668;BME280;64266;48.798;44.756;2023-11-21T18:11:47;100642.16;;;1.50;67.81
75668;BME280;64266;48.798;44.756;2023-11-21T18:16:50;100626.59;;;1.25;67.17
75668;BME280;64266;48.798;44.756;2023-11-21T18:21:54;100657.31;;;1.31;68.53
75668;BME280;64266;48.798;44.756;2023-11-21T18:26:56;100635.91;;;1.19;68.91
75668;BME280;64266;48.798;44.756;2023-11-21T18:31:59;100625.72;;;1.00;69.24
75668;BME280;64266;48.798;44.756;2023-11-21T18:37:02;100647.69;;;1.31;69.77
75668;BME280;64266;48.798;44.756;2023-11-21T18:42:05;100647.19;;;1.20;67.83
75668;BME280;64266;48.798;44.756;2023-11-21T18:47:09;100669.19;;;1.17;68.96
75668;BME280;64266;48.798;44.756;2023-11-21T18:52:17;100686.38;;;1.28;66.89
75668;BME280;64266;48.798;44.756;2023-11-21T18:57:20;100692.03;;;1.23;67.96
75668;BME280;64266;48.798;44.756;2023-11-21T19:02:23;100704.97;;;1.33;67.59
75668;BME280;64266;48.798;44.756;2023-11-21T19:07:26;100706.47;;;1.35;67.45
75668;BME280;64266;48.798;44.756;2023-11-21T19:12:31;100693.03;;;1.22;68.05
75668;BME280;64266;48.798;44.756;2023-11-21T19:17:37;100715.41;;;1.25;66.57
75668;BME280;64266;48.798;44.756;2023-11-21T19:22:41;100710.28;;;1.07;67.01
75668;BME280;64266;48.798;44.756;2023-11-21T19:27:44;100717.13;;;1.08;66.78
75668;BME280;64266;48.798;44.756;2023-11-21T19:32:50;100708.13;;;0.94;65.91
75668;BME280;64266;48.798;44.756;2023-11-21T19:37:53;100696.09;;;0.76;67.59
75668;BME280;64266;48.798;44.756;2023-11-21T19:42:56;100733.41;;;1.02;67.81
75668;BME280;64266;48.798;44.756;2023-11-21T19:47:58;100727.53;;;0.92;67.01
75668;BME280;64266;48.798;44.756;2023-11-21T19:53:01;100751.16;;;0.90;66.97
75668;BME280;64266;48.798;44.756;2023-11-21T19:58:06;100723.59;;;0.62;67.31
75668;BME280;64266;48.798;44.756;2023-11-21T20:03:09;100757.41;;;0.72;66.94
75668;BME280;64266;48.798;44.756;2023-11-21T20:08:12;100749.44;;;0.73;67.11
75668;BME280;64266;48.798;44.756;2023-11-21T20:13:15;100739.81;;;0.74;65.70
75668;BME280;64266;48.798;44.756;2023-11-21T20:18:19;100754.69;;;0.81;66.06
75668;BME280;64266;48.798;44.756;2023-11-21T20:23:22;100776.13;;;0.93;65.37
75668;BME280;64266;48.798;44.756;2023-11-21T20:28:27;100760.78;;;0.90;64.72
75668;BME280;64266;48.798;44.756;2023-11-21T20:33:29;100765.03;;;0.91;64.74
75668;BME280;64266;48.798;44.756;2023-11-21T20:38:32;100761.69;;;0.81;65.01
75668;BME280;64266;48.798;44.756;2023-11-21T20:43:36;100747.66;;;0.74;64.61
75668;BME280;64266;48.798;44.756;2023-11-21T20:48:39;100740.06;;;0.63;64.75
75668;BME280;64266;48.798;44.756;2023-11-21T20:53:42;100784.56;;;0.87;65.50
75668;BME280;64266;48.798;44.756;2023-11-21T20:58:45;100750.56;;;0.71;63.61
75668;BME280;64266;48.798;44.756;2023-11-21T21:03:49;100749.13;;;0.50;64.49
75668;BME280;64266;48.798;44.756;2023-11-21T21:08:52;100752.75;;;0.58;64.11
75668;BME280;64266;48.798;44.756;2023-11-21T21:13:55;100766.41;;;0.77;65.00
75668;BME280;64266;48.798;44.756;2023-11-21T21:18:58;100762.31;;;0.75;64.78
75668;BME280;64266;48.798;44.756;2023-11-21T21:24:01;100772.91;;;0.73;64.22
75668;BME280;64266;48.798;44.756;2023-11-21T21:29:04;100753.50;;;0.68;63.74
75668;BME280;64266;48.798;44.756;2023-11-21T21:34:11;100741.75;;;0.46;63.49
75668;BME280;64266;48.798;44.756;2023-11-21T21:39:15;100752.50;;;0.69;63.58
75668;BME280;64266;48.798;44.756;2023-11-21T21:44:20;100751.84;;;0.67;63.75
75668;BME280;64266;48.798;44.756;2023-11-21T21:49:23;100733.09;;;0.45;63.58
75668;BME280;64266;48.798;44.756;2023-11-21T21:54:26;100772.84;;;0.65;64.80
75668;BME280;64266;48.798;44.756;2023-11-21T21:59:29;100742.75;;;0.27;63.22
75668;BME280;64266;48.798;44.756;2023-11-21T22:04:32;100801.28;;;0.50;64.19
75668;BME280;64266;48.798;44.756;2023-11-21T22:09:36;100781.69;;;0.46;64.76
75668;BME280;64266;48.798;44.756;2023-11-21T22:14:39;100809.88;;;0.43;65.20
75668;BME280;64266;48.798;44.756;2023-11-21T22:19:42;100825.13;;;0.55;65.50
75668;BME280;64266;48.798;44.756;2023-11-21T22:24:45;100843.25;;;0.57;63.74
75668;BME280;64266;48.798;44.756;2023-11-21T22:29:48;100807.56;;;0.40;62.74
75668;BME280;64266;48.798;44.756;2023-11-21T22:34:51;100835.78;;;0.62;63.61
75668;BME280;64266;48.798;44.756;2023-11-21T22:39:54;100800.63;;;0.31;63.42
75668;BME280;64266;48.798;44.756;2023-11-21T22:44:57;100870.69;;;0.61;63.05
75668;BME280;64266;48.798;44.756;2023-11-21T22:50:00;100810.34;;;0.21;61.59
75668;BME280;64266;48.798;44.756;2023-11-21T22:55:05;100878.94;;;0.57;62.56
75668;BME280;64266;48.798;44.756;2023-11-21T23:00:08;100874.03;;;0.53;62.19
75668;BME280;64266;48.798;44.756;2023-11-21T23:05:14;100871.66;;;0.60;62.34
75668;BME280;64266;48.798;44.756;2023-11-21T23:10:18;100870.00;;;0.41;62.04
75668;BME280;64266;48.798;44.756;2023-11-21T23:15:21;100883.13;;;0.49;61.58
75668;BME280;64266;48.798;44.756;2023-11-21T23:20:25;100860.09;;;0.27;61.14
75668;BME280;64266;48.798;44.756;2023-11-21T23:25:28;100839.75;;;0.13;61.63
75668;BME280;64266;48.798;44.756;2023-11-21T23:30:30;100845.38;;;-0.09;61.61
75668;BME280;64266;48.798;44.756;2023-11-21T23:35:33;100917.25;;;0.38;61.37
75668;BME280;64266;48.798;44.756;2023-11-21T23:40:36;100881.31;;;0.15;61.69
75668;BME280;64266;48.798;44.756;2023-11-21T23:45:41;100928.63;;;0.20;61.65
75668;BME280;64266;48.798;44.756;2023-11-21T23:50:43;100916.50;;;0.01;62.11
75668;BME280;64266;48.798;44.756;2023-11-21T23:55:46;100936.22;;;0.13;62.00
